createdAt,value
2019-04-30T00:00:55.486Z,100.00
2019-04-30T00:03:35.240Z,99.68
2019-04-30T00:06:07.406Z,100.00
2019-04-30T00:08:39.170Z,100.00
2019-04-30T00:11:05.927Z,100.00
2019-04-30T00:13:35.927Z,100.00
2019-04-30T00:16:05.375Z,100.00
2019-04-30T00:18:37.869Z,100.00
2019-04-30T00:21:05.511Z,100.00
2019-04-30T00:23:35.840Z,100.00
2019-04-30T00:26:06.274Z,100.00
2019-04-30T00:28:35.397Z,100.00
2019-04-30T00:31:05.520Z,100.00
2019-04-30T00:33:35.375Z,100.00
2019-04-30T00:36:05.060Z,100.00
2019-04-30T00:38:37.718Z,100.00
2019-04-30T00:41:06.850Z,100.00
2019-04-30T00:43:35.388Z,100.00
2019-04-30T00:46:05.094Z,100.00
2019-04-30T00:48:35.575Z,100.00
2019-04-30T00:51:07.433Z,100.00
2019-04-30T00:53:35.948Z,100.00
2019-04-30T00:56:05.735Z,100.00
2019-04-30T00:58:35.626Z,100.00
2019-04-30T01:01:16.489Z,100.00
2019-04-30T01:03:50.115Z,100.00
2019-04-30T01:06:24.721Z,100.00
2019-04-30T01:08:48.891Z,100.00
2019-04-30T01:11:17.342Z,100.00
2019-04-30T01:13:52.537Z,100.00
2019-04-30T01:16:16.077Z,100.00
2019-04-30T01:18:44.551Z,100.00
2019-04-30T01:21:13.003Z,100.00
2019-04-30T01:23:48.197Z,100.00
2019-04-30T01:26:11.963Z,100.00
2019-04-30T01:28:40.494Z,100.00
2019-04-30T01:31:09.114Z,100.00
2019-04-30T01:33:39.011Z,100.00
2019-04-30T01:36:09.661Z,100.00
2019-04-30T01:38:40.043Z,100.00
2019-04-30T01:41:09.431Z,100.00
2019-04-30T01:43:38.566Z,100.00
2019-04-30T01:46:12.183Z,100.00
2019-04-30T01:48:39.185Z,100.00
2019-04-30T01:51:09.000Z,100.00
2019-04-30T01:53:38.713Z,100.00
2019-04-30T01:56:20.908Z,100.00
2019-04-30T01:58:53.979Z,100.00
2019-04-30T02:01:31.126Z,100.00
2019-04-30T02:03:59.881Z,100.00
2019-04-30T02:06:29.459Z,100.00
2019-04-30T02:08:59.311Z,100.00
2019-04-30T02:11:28.848Z,100.00
2019-04-30T02:13:59.084Z,100.00
2019-04-30T02:16:28.944Z,100.00
2019-04-30T02:18:59.514Z,100.00
2019-04-30T02:21:29.868Z,100.00
2019-04-30T02:23:58.833Z,100.00
2019-04-30T02:26:28.614Z,100.00
2019-04-30T02:28:59.345Z,100.00
2019-04-30T02:31:30.701Z,100.00
2019-04-30T02:34:00.450Z,100.00
2019-04-30T02:36:36.478Z,100.00
2019-04-30T02:39:06.690Z,100.00
2019-04-30T02:41:35.716Z,100.00
2019-04-30T02:44:04.405Z,100.00
2019-04-30T02:46:33.551Z,100.00
2019-04-30T02:49:02.087Z,100.00
2019-04-30T02:51:32.091Z,100.00
2019-04-30T02:54:03.739Z,100.00
2019-04-30T02:56:32.728Z,100.00
2019-04-30T02:59:03.880Z,100.00
2019-04-30T03:01:31.385Z,100.00
2019-04-30T03:03:59.978Z,100.00
2019-04-30T03:06:30.276Z,100.00
2019-04-30T03:09:01.145Z,100.00
2019-04-30T03:11:30.294Z,100.00
2019-04-30T03:13:59.418Z,100.00
2019-04-30T03:16:32.531Z,100.00
2019-04-30T03:19:02.677Z,100.00
2019-04-30T03:21:50.276Z,100.00
2019-04-30T03:24:20.195Z,100.00
2019-04-30T03:26:49.997Z,100.00
2019-04-30T03:29:20.396Z,100.00
2019-04-30T03:31:52.296Z,100.00
2019-04-30T03:34:25.124Z,100.00
2019-04-30T03:36:50.404Z,100.00
2019-04-30T03:39:19.859Z,100.00
2019-04-30T03:41:50.179Z,100.00
2019-04-30T03:44:25.548Z,100.00
2019-04-30T03:46:49.821Z,100.00
2019-04-30T03:49:20.245Z,100.00
2019-04-30T03:51:49.916Z,100.00
2019-04-30T03:54:19.364Z,100.00
2019-04-30T03:56:50.190Z,100.00
2019-04-30T03:59:19.999Z,100.00
2019-04-30T04:02:05.038Z,100.00
2019-04-30T04:04:43.962Z,100.00
2019-04-30T04:07:16.818Z,100.00
2019-04-30T04:09:56.388Z,100.00
2019-04-30T04:12:25.992Z,100.00
2019-04-30T04:14:54.542Z,100.00
2019-04-30T04:17:23.605Z,100.00
2019-04-30T04:19:52.044Z,100.00
2019-04-30T04:22:21.544Z,100.00
2019-04-30T04:24:50.932Z,100.00
2019-04-30T04:27:19.859Z,100.00
2019-04-30T04:29:51.110Z,100.00
2019-04-30T04:32:23.581Z,100.00
2019-04-30T04:34:50.514Z,100.00
2019-04-30T04:37:20.319Z,100.00
2019-04-30T04:39:50.187Z,100.00
2019-04-30T04:42:19.596Z,100.00
2019-04-30T04:44:50.310Z,100.00
2019-04-30T04:47:19.986Z,100.00
2019-04-30T04:49:53.270Z,100.00
2019-04-30T04:52:21.627Z,100.00
2019-04-30T04:54:50.624Z,100.00
2019-04-30T04:57:22.593Z,100.00
2019-04-30T04:59:50.280Z,100.00
2019-04-30T05:02:32.583Z,100.00
2019-04-30T05:05:00.064Z,100.00
2019-04-30T05:07:28.853Z,100.00
2019-04-30T05:10:00.479Z,100.00
2019-04-30T05:12:29.589Z,100.00
2019-04-30T05:14:59.580Z,100.00
2019-04-30T05:17:29.676Z,100.00
2019-04-30T05:19:58.657Z,100.00
2019-04-30T05:22:29.171Z,100.00
2019-04-30T05:24:58.834Z,100.00
2019-04-30T05:27:27.727Z,100.00
2019-04-30T05:29:56.229Z,100.00
2019-04-30T05:32:24.640Z,100.00
2019-04-30T05:34:53.177Z,100.00
2019-04-30T05:37:22.480Z,100.00
2019-04-30T05:39:51.180Z,100.00
2019-04-30T05:42:19.693Z,99.57
2019-04-30T05:44:49.731Z,100.00
2019-04-30T05:47:19.611Z,98.63
2019-04-30T05:49:48.884Z,99.43
2019-04-30T05:52:19.728Z,99.55
2019-04-30T05:54:48.729Z,99.86
2019-04-30T05:57:19.564Z,97.03
2019-04-30T05:59:48.742Z,96.92
2019-04-30T06:02:19.331Z,96.01
2019-04-30T06:04:48.938Z,94.10
2019-04-30T06:07:18.848Z,93.60
2019-04-30T06:09:50.649Z,92.91
2019-04-30T06:12:23.633Z,92.09
2019-04-30T06:14:53.773Z,92.41
2019-04-30T06:17:23.903Z,90.01
2019-04-30T06:19:52.394Z,90.60
2019-04-30T06:22:21.334Z,90.81
2019-04-30T06:24:49.906Z,92.46
2019-04-30T06:27:19.113Z,89.21
2019-04-30T06:29:49.026Z,84.63
2019-04-30T06:32:18.624Z,83.54
2019-04-30T06:34:49.860Z,83.02
2019-04-30T06:37:19.458Z,84.15
2019-04-30T06:39:49.973Z,82.85
2019-04-30T06:42:19.480Z,79.51
2019-04-30T06:44:49.417Z,78.59
2019-04-30T06:47:26.525Z,76.44
2019-04-30T06:49:49.008Z,74.69
2019-04-30T06:52:22.749Z,74.36
2019-04-30T06:54:49.828Z,74.35
2019-04-30T06:57:19.855Z,75.36
2019-04-30T06:59:51.254Z,72.98
2019-04-30T07:02:19.729Z,72.04
2019-04-30T07:04:49.143Z,71.08
2019-04-30T07:07:22.859Z,68.35
2019-04-30T07:10:10.111Z,67.67
2019-04-30T07:12:52.483Z,66.75
2019-04-30T07:15:20.975Z,65.14
2019-04-30T07:17:49.427Z,65.16
2019-04-30T07:20:19.125Z,64.45
2019-04-30T07:22:52.519Z,63.99
2019-04-30T07:25:19.549Z,63.09
2019-04-30T07:27:50.518Z,62.06
2019-04-30T07:30:19.265Z,62.19
2019-04-30T07:32:48.827Z,62.69
2019-04-30T07:35:19.497Z,61.65
2019-04-30T07:37:49.490Z,62.47
2019-04-30T07:40:19.014Z,60.65
2019-04-30T07:42:49.327Z,59.76
2019-04-30T07:45:19.418Z,59.79
2019-04-30T07:47:49.431Z,59.41
2019-04-30T07:50:21.115Z,59.32
2019-04-30T07:53:01.990Z,56.52
2019-04-30T07:55:19.651Z,56.60
2019-04-30T07:57:50.660Z,56.64
2019-04-30T08:00:19.401Z,58.38
2019-04-30T08:02:52.448Z,57.14
2019-04-30T08:05:25.415Z,55.97
2019-04-30T08:07:53.956Z,52.85
2019-04-30T08:10:22.436Z,52.68
2019-04-30T08:12:51.391Z,54.15
2019-04-30T08:15:20.370Z,52.22
2019-04-30T08:18:02.275Z,52.59
2019-04-30T08:20:19.767Z,52.87
2019-04-30T08:22:49.383Z,49.48
2019-04-30T08:25:21.321Z,51.11
2019-04-30T08:27:49.261Z,50.21
2019-04-30T08:30:26.081Z,48.97
2019-04-30T08:32:49.957Z,47.11
2019-04-30T08:35:19.698Z,46.65
2019-04-30T08:37:49.812Z,45.90
2019-04-30T08:40:19.012Z,47.67
2019-04-30T08:42:49.619Z,48.64
2019-04-30T08:45:19.676Z,46.11
2019-04-30T08:47:49.307Z,43.47
2019-04-30T08:50:20.112Z,43.37
2019-04-30T08:52:49.849Z,44.36
2019-04-30T08:55:21.991Z,41.99
2019-04-30T08:57:49.991Z,41.62
2019-04-30T09:00:19.805Z,42.33
2019-04-30T09:02:49.220Z,41.12
2019-04-30T09:05:22.200Z,42.83
2019-04-30T09:07:50.911Z,42.17
2019-04-30T09:10:19.416Z,41.29
2019-04-30T09:12:49.603Z,42.96
2019-04-30T09:15:18.881Z,41.73
2019-04-30T09:17:58.910Z,42.01
2019-04-30T09:20:19.412Z,40.43
2019-04-30T09:22:49.593Z,39.84
2019-04-30T09:25:19.439Z,40.16
2019-04-30T09:27:48.825Z,40.77
2019-04-30T09:30:18.786Z,40.51
2019-04-30T09:32:49.844Z,41.51
2019-04-30T09:35:19.515Z,40.69
2019-04-30T09:37:49.656Z,37.96
2019-04-30T09:40:20.996Z,38.18
2019-04-30T09:42:48.766Z,38.70
2019-04-30T09:45:18.667Z,38.26
2019-04-30T09:47:47.420Z,38.72
2019-04-30T09:50:15.927Z,37.59
2019-04-30T09:52:44.725Z,37.81
2019-04-30T09:55:13.849Z,38.65
2019-04-30T09:57:42.431Z,37.62
2019-04-30T10:00:11.734Z,39.22
2019-04-30T10:02:40.350Z,34.41
2019-04-30T10:05:09.745Z,38.32
2019-04-30T10:07:39.375Z,34.37
2019-04-30T10:10:11.389Z,35.88
2019-04-30T10:12:40.118Z,35.17
2019-04-30T10:15:10.846Z,34.25
2019-04-30T10:17:41.161Z,32.80
2019-04-30T10:20:11.080Z,32.71
2019-04-30T10:22:40.123Z,34.48
2019-04-30T10:25:10.538Z,33.74
2019-04-30T10:27:39.099Z,31.95
2019-04-30T10:30:09.420Z,33.10
2019-04-30T10:32:38.258Z,33.03
2019-04-30T10:35:07.070Z,30.22
2019-04-30T10:37:35.715Z,31.35
2019-04-30T10:40:06.607Z,29.89
2019-04-30T10:42:35.118Z,28.94
2019-04-30T10:45:05.281Z,26.90
2019-04-30T10:47:33.861Z,26.13
2019-04-30T10:50:02.549Z,26.14
2019-04-30T10:52:31.070Z,26.77
2019-04-30T10:54:59.662Z,26.68
2019-04-30T10:57:28.471Z,28.38
2019-04-30T10:59:58.683Z,24.38
2019-04-30T11:02:28.757Z,25.50
2019-04-30T11:04:57.542Z,26.48
2019-04-30T11:07:26.039Z,26.12
2019-04-30T11:09:54.506Z,26.69
2019-04-30T11:12:23.012Z,25.63
2019-04-30T11:14:51.484Z,25.05
2019-04-30T11:17:20.229Z,25.22
2019-04-30T11:19:49.341Z,23.96
2019-04-30T11:22:18.352Z,26.10
2019-04-30T11:24:58.739Z,23.43
2019-04-30T11:27:17.641Z,24.19
2019-04-30T11:29:49.356Z,22.52
2019-04-30T11:32:19.454Z,24.59
2019-04-30T11:34:48.403Z,24.70
2019-04-30T11:37:17.071Z,23.71
2019-04-30T11:39:45.526Z,23.67
2019-04-30T11:42:14.015Z,22.72
2019-04-30T11:44:42.524Z,22.73
2019-04-30T11:47:20.101Z,22.63
2019-04-30T11:49:48.606Z,20.29
2019-04-30T11:52:17.121Z,22.58
2019-04-30T11:54:51.592Z,22.35
2019-04-30T11:57:18.731Z,21.80
2019-04-30T11:59:47.049Z,21.85
2019-04-30T12:02:21.219Z,22.31
2019-04-30T12:04:50.023Z,22.47
2019-04-30T12:07:35.927Z,21.40
2019-04-30T12:10:09.466Z,21.05
2019-04-30T12:12:38.824Z,20.08
2019-04-30T12:15:09.350Z,20.72
2019-04-30T12:17:37.950Z,20.47
2019-04-30T12:20:08.668Z,20.55
2019-04-30T12:22:39.590Z,20.94
2019-04-30T12:25:09.877Z,20.45
2019-04-30T12:27:38.685Z,19.25
2019-04-30T12:30:09.069Z,21.42
2019-04-30T12:32:39.182Z,20.45
2019-04-30T12:35:08.557Z,20.30
2019-04-30T12:37:38.968Z,21.25
2019-04-30T12:40:09.507Z,20.74
2019-04-30T12:42:39.134Z,18.19
2019-04-30T12:45:09.577Z,19.04
2019-04-30T12:47:40.148Z,18.48
2019-04-30T12:50:16.836Z,18.51
2019-04-30T12:52:47.002Z,18.38
2019-04-30T12:55:17.219Z,18.29
2019-04-30T12:57:58.148Z,16.74
2019-04-30T13:00:19.512Z,18.43
2019-04-30T13:02:48.428Z,18.69
2019-04-30T13:05:18.727Z,18.76
2019-04-30T13:07:49.553Z,17.71
2019-04-30T13:10:18.216Z,16.57
2019-04-30T13:12:47.980Z,17.51
2019-04-30T13:15:17.034Z,18.35
2019-04-30T13:17:45.541Z,18.59
2019-04-30T13:20:21.250Z,18.27
2019-04-30T13:22:44.470Z,18.03
2019-04-30T13:25:13.827Z,16.98
2019-04-30T13:27:50.256Z,16.81
2019-04-30T13:30:23.624Z,17.51
2019-04-30T13:32:53.803Z,17.49
2019-04-30T13:35:22.286Z,16.52
2019-04-30T13:37:52.568Z,16.71
2019-04-30T13:40:28.679Z,14.32
2019-04-30T13:42:58.601Z,15.18
2019-04-30T13:45:28.758Z,14.48
2019-04-30T13:47:58.859Z,14.28
2019-04-30T13:50:29.185Z,14.65
2019-04-30T13:52:58.791Z,15.72
2019-04-30T13:55:29.203Z,14.88
2019-04-30T13:57:57.580Z,14.48
2019-04-30T14:00:29.535Z,15.03
2019-04-30T14:03:01.977Z,15.68
2019-04-30T14:05:30.486Z,15.05
2019-04-30T14:08:00.609Z,16.38
2019-04-30T14:10:30.956Z,19.10
2019-04-30T14:13:01.301Z,19.23
2019-04-30T14:15:29.798Z,20.77
2019-04-30T14:17:59.728Z,22.15
2019-04-30T14:20:28.483Z,21.26
2019-04-30T14:22:57.683Z,21.46
2019-04-30T14:25:26.245Z,23.39
2019-04-30T14:27:55.012Z,21.52
2019-04-30T14:30:23.841Z,22.82
2019-04-30T14:32:52.310Z,22.32
2019-04-30T14:35:20.951Z,22.05
2019-04-30T14:37:49.798Z,24.03
2019-04-30T14:40:20.316Z,22.81
2019-04-30T14:42:59.833Z,22.08
2019-04-30T14:45:48.757Z,19.87
2019-04-30T14:48:32.112Z,19.13
2019-04-30T14:51:01.260Z,17.96
2019-04-30T14:53:48.980Z,19.63
2019-04-30T14:56:19.772Z,20.39
2019-04-30T14:58:50.502Z,21.96
2019-04-30T15:01:23.388Z,22.48
2019-04-30T15:03:51.899Z,22.61
2019-04-30T15:06:20.347Z,23.63
2019-04-30T15:08:49.467Z,24.79
2019-04-30T15:11:19.036Z,25.64
2019-04-30T15:13:49.378Z,24.66
2019-04-30T15:16:18.143Z,24.29
2019-04-30T15:18:46.629Z,25.05
2019-04-30T15:21:15.246Z,26.06
2019-04-30T15:24:00.910Z,25.63
2019-04-30T15:26:28.747Z,26.30
2019-04-30T15:28:59.908Z,27.40
2019-04-30T15:31:29.517Z,25.40
2019-04-30T15:34:03.227Z,27.08
2019-04-30T15:36:31.876Z,25.08
2019-04-30T15:39:01.987Z,23.95
2019-04-30T15:41:31.308Z,24.56
2019-04-30T15:44:00.154Z,23.77
2019-04-30T15:46:29.160Z,26.12
2019-04-30T15:48:57.721Z,25.34
2019-04-30T15:51:26.235Z,26.54
2019-04-30T15:53:54.859Z,26.18
2019-04-30T15:56:34.352Z,26.87
2019-04-30T15:59:11.454Z,28.21
2019-04-30T16:01:42.004Z,26.12
2019-04-30T16:04:12.189Z,30.09
2019-04-30T16:06:40.737Z,29.00
2019-04-30T16:09:11.552Z,26.64
2019-04-30T16:11:50.294Z,27.00
2019-04-30T16:14:32.413Z,29.58
2019-04-30T16:17:02.554Z,27.47
2019-04-30T16:19:31.138Z,29.04
2019-04-30T16:21:59.628Z,28.12
2019-04-30T16:24:28.741Z,28.73
2019-04-30T16:26:59.347Z,28.44
2019-04-30T16:29:27.788Z,28.35
2019-04-30T16:31:56.570Z,28.95
2019-04-30T16:34:25.083Z,29.71
2019-04-30T16:36:54.181Z,30.54
2019-04-30T16:39:22.662Z,31.51
2019-04-30T16:41:51.218Z,30.55
2019-04-30T16:44:21.341Z,31.04
2019-04-30T16:46:50.040Z,28.68
2019-04-30T16:49:18.642Z,29.58
2019-04-30T16:51:47.461Z,30.26
2019-04-30T16:54:16.047Z,31.73
2019-04-30T16:56:44.566Z,29.15
2019-04-30T16:59:18.050Z,29.51
2019-04-30T17:01:57.459Z,26.91
2019-04-30T17:04:30.209Z,31.15
2019-04-30T17:07:03.976Z,30.97
2019-04-30T17:09:34.101Z,30.59
2019-04-30T17:12:16.679Z,31.51
2019-04-30T17:14:45.357Z,32.37
2019-04-30T17:17:13.802Z,34.05
2019-04-30T17:19:42.307Z,32.74
2019-04-30T17:22:10.768Z,33.76
2019-04-30T17:24:39.494Z,34.04
2019-04-30T17:27:18.655Z,34.40
2019-04-30T17:29:39.321Z,34.87
2019-04-30T17:32:08.444Z,32.64
2019-04-30T17:34:38.950Z,33.53
2019-04-30T17:37:09.090Z,39.03
2019-04-30T17:39:40.914Z,36.37
2019-04-30T17:42:08.040Z,37.30
2019-04-30T17:44:36.645Z,36.56
2019-04-30T17:47:05.183Z,36.15
2019-04-30T17:49:33.824Z,37.63
2019-04-30T17:52:02.343Z,34.09
2019-04-30T17:54:30.857Z,32.87
2019-04-30T17:56:59.287Z,30.47
2019-04-30T17:59:27.794Z,30.98
2019-04-30T18:01:59.594Z,33.11
2019-04-30T18:04:29.680Z,30.86
2019-04-30T18:06:59.100Z,31.54
2019-04-30T18:09:29.163Z,31.66
2019-04-30T18:11:59.567Z,33.67
2019-04-30T18:14:28.606Z,33.88
2019-04-30T18:16:59.316Z,31.32
2019-04-30T18:19:45.369Z,32.20
2019-04-30T18:22:32.317Z,33.29
2019-04-30T18:25:02.501Z,33.17
2019-04-30T18:27:42.977Z,34.08
2019-04-30T18:30:03.518Z,34.33
2019-04-30T18:32:32.010Z,33.57
2019-04-30T18:35:00.691Z,35.17
2019-04-30T18:37:29.579Z,35.21
2019-04-30T18:40:00.185Z,35.98
2019-04-30T18:42:29.223Z,37.13
2019-04-30T18:44:57.936Z,34.83
2019-04-30T18:47:26.951Z,37.67
2019-04-30T18:49:55.498Z,38.27
2019-04-30T18:52:23.967Z,35.39
2019-04-30T18:54:52.707Z,39.44
2019-04-30T18:57:21.161Z,40.48
2019-04-30T18:59:49.647Z,40.82
2019-04-30T19:02:18.497Z,39.66
2019-04-30T19:04:47.110Z,42.98
2019-04-30T19:07:26.582Z,44.52
2019-04-30T19:09:58.888Z,45.78
2019-04-30T19:12:45.272Z,48.75
2019-04-30T19:15:16.564Z,49.52
2019-04-30T19:17:49.609Z,48.22
2019-04-30T19:20:20.189Z,46.89
2019-04-30T19:22:48.633Z,46.78
2019-04-30T19:25:19.099Z,45.01
2019-04-30T19:27:47.694Z,45.70
2019-04-30T19:30:16.747Z,45.24
2019-04-30T19:32:45.573Z,45.74
2019-04-30T19:35:14.276Z,45.37
2019-04-30T19:37:42.795Z,46.35
2019-04-30T19:40:12.172Z,46.90
2019-04-30T19:42:40.639Z,46.81
2019-04-30T19:45:12.383Z,47.74
2019-04-30T19:47:39.464Z,49.15
2019-04-30T19:50:09.369Z,50.63
2019-04-30T19:52:38.184Z,51.85
2019-04-30T19:55:07.078Z,50.33
2019-04-30T19:57:35.662Z,52.20
2019-04-30T20:00:05.521Z,52.97
2019-04-30T20:02:33.990Z,51.76
2019-04-30T20:05:02.530Z,52.40
2019-04-30T20:07:31.096Z,53.52
2019-04-30T20:10:03.745Z,52.52
2019-04-30T20:12:29.942Z,53.32
2019-04-30T20:15:00.455Z,53.78
2019-04-30T20:17:38.553Z,54.62
2019-04-30T20:20:08.985Z,55.66
2019-04-30T20:22:38.962Z,55.00
2019-04-30T20:25:09.155Z,57.56
2019-04-30T20:27:39.565Z,59.10
2019-04-30T20:30:09.608Z,59.03
2019-04-30T20:32:38.210Z,58.88
2019-04-30T20:35:09.717Z,58.76
2019-04-30T20:37:56.853Z,59.34
2019-04-30T20:40:27.056Z,59.66
2019-04-30T20:42:55.545Z,60.67
2019-04-30T20:45:24.060Z,61.29
2019-04-30T20:47:52.705Z,62.10
2019-04-30T20:50:43.477Z,63.19
2019-04-30T20:53:11.985Z,63.15
2019-04-30T20:55:40.818Z,63.36
2019-04-30T20:58:09.661Z,64.35
2019-04-30T21:00:38.204Z,64.37
2019-04-30T21:03:06.915Z,65.71
2019-04-30T21:05:35.484Z,65.70
2019-04-30T21:08:04.060Z,66.30
2019-04-30T21:10:32.543Z,64.71
2019-04-30T21:13:01.074Z,66.19
2019-04-30T21:15:29.823Z,66.80
2019-04-30T21:17:58.755Z,67.42
2019-04-30T21:20:28.894Z,67.32
2019-04-30T21:22:59.470Z,66.29
2019-04-30T21:25:29.218Z,66.68
2019-04-30T21:27:59.924Z,66.14
2019-04-30T21:30:28.290Z,65.62
2019-04-30T21:33:01.338Z,66.35
2019-04-30T21:35:31.658Z,65.20
2019-04-30T21:38:01.842Z,66.11
2019-04-30T21:40:30.651Z,66.30
2019-04-30T21:42:59.176Z,65.64
2019-04-30T21:45:29.221Z,66.17
2019-04-30T21:47:58.808Z,65.98
2019-04-30T21:50:29.615Z,66.56
2019-04-30T21:52:59.754Z,67.40
2019-04-30T21:55:29.640Z,66.91
2019-04-30T21:57:59.433Z,68.62
2019-04-30T22:00:36.914Z,69.65
2019-04-30T22:03:09.584Z,69.62
2019-04-30T22:05:37.757Z,72.64
2019-04-30T22:08:06.360Z,74.77
2019-04-30T22:10:34.828Z,75.40
2019-04-30T22:13:03.316Z,73.82
2019-04-30T22:15:31.809Z,73.77
2019-04-30T22:18:00.309Z,73.18
2019-04-30T22:20:29.242Z,74.47
2019-04-30T22:22:57.939Z,73.46
2019-04-30T22:25:26.521Z,74.10
2019-04-30T22:27:55.103Z,73.03
2019-04-30T22:30:23.631Z,74.43
2019-04-30T22:32:52.149Z,75.57
2019-04-30T22:35:28.493Z,77.16
2019-04-30T22:38:09.237Z,74.44
2019-04-30T22:40:39.190Z,74.65
2019-04-30T22:43:09.322Z,75.58
2019-04-30T22:45:41.942Z,75.58
2019-04-30T22:48:10.437Z,79.06
2019-04-30T22:50:38.899Z,81.27
2019-04-30T22:53:07.408Z,79.28
2019-04-30T22:55:35.867Z,77.48
2019-04-30T22:58:04.872Z,76.47
2019-04-30T23:00:37.915Z,76.32
2019-04-30T23:03:10.849Z,77.71
2019-04-30T23:05:39.332Z,76.75
2019-04-30T23:08:07.804Z,77.10
2019-04-30T23:10:36.479Z,77.85
2019-04-30T23:13:05.209Z,79.52
2019-04-30T23:15:34.123Z,80.07
2019-04-30T23:18:02.661Z,79.01
2019-04-30T23:20:31.153Z,78.03
2019-04-30T23:22:59.600Z,80.82
2019-04-30T23:25:28.091Z,79.32
2019-04-30T23:27:56.599Z,79.89
2019-04-30T23:30:25.084Z,74.33
2019-04-30T23:32:53.520Z,73.08
2019-04-30T23:35:22.021Z,76.18
2019-04-30T23:37:50.465Z,78.40
2019-04-30T23:40:27.390Z,77.02
2019-04-30T23:42:56.121Z,78.38
2019-04-30T23:45:24.570Z,78.20
2019-04-30T23:47:53.189Z,78.38
2019-04-30T23:50:21.768Z,80.09
2019-04-30T23:52:50.448Z,80.57
2019-04-30T23:55:19.060Z,84.29
2019-04-30T23:57:47.843Z,84.39
